Time;durP1;ratioP1;P1;durP2;ratioP2;P2;SDS_P1;SDS_P2;PMS_P1;PMS_P2;Temp;Humidity;BMP_temperature;BMP_pressure;BME280_temperature;BME280_humidity;BME280_pressure;Samples;Min_cycle;Max_cycle;Signal;HPM_P1;HPM_P2
2023/05/10 00:01:47;;;;;;;0.15;0.15;;;13.70;99.90;;;;;;5092154;28;20199;-63
2023/05/10 00:04:13;;;;;;;0.00;0.00;;;13.70;99.90;;;;;;5092434;28;20593;-63
2023/05/10 00:06:39;;;;;;;0.00;0.00;;;13.60;99.90;;;;;;5092478;28;20232;-63
2023/05/10 00:09:04;;;;;;;0.00;0.00;;;13.60;99.90;;;;;;5093124;28;20176;-62
2023/05/10 00:11:30;;;;;;;0.00;0.00;;;13.60;99.90;;;;;;5090770;28;20180;-63
2023/05/10 00:13:55;;;;;;;0.00;0.00;;;13.50;99.90;;;;;;5092517;28;20281;-62
2023/05/10 00:16:21;;;;;;;0.00;0.00;;;13.50;99.90;;;;;;5092343;28;20183;-63
2023/05/10 00:18:46;;;;;;;0.00;0.00;;;13.50;99.90;;;;;;5091835;28;20176;-63
2023/05/10 00:21:12;;;;;;;0.00;0.00;;;13.50;99.90;;;;;;5092973;28;20250;-63
2023/05/10 00:23:37;;;;;;;0.00;0.00;;;13.50;99.90;;;;;;5092212;28;20262;-63
2023/05/10 00:26:03;;;;;;;0.00;0.00;;;13.50;99.90;;;;;;5091314;28;20252;-63
2023/05/10 00:28:29;;;;;;;0.00;0.00;;;13.40;99.90;;;;;;5092652;28;20174;-62
2023/05/10 00:30:55;;;;;;;0.00;0.00;;;13.40;99.90;;;;;;5092578;28;20177;-62
2023/05/10 00:33:20;;;;;;;0.00;0.00;;;13.40;99.90;;;;;;5092311;28;20176;-63
2023/05/10 00:35:46;;;;;;;0.00;0.00;;;13.40;99.90;;;;;;5092356;28;20179;-63
2023/05/10 00:38:12;;;;;;;0.00;0.00;;;13.40;99.90;;;;;;5092310;28;20247;-63
2023/05/10 00:40:37;;;;;;;0.00;0.00;;;13.40;99.90;;;;;;5092322;28;20194;-63
2023/05/10 00:43:03;;;;;;;0.00;0.00;;;13.40;99.90;;;;;;5092476;28;20176;-63
2023/05/10 00:45:31;;;;;;;0.00;0.00;;;13.30;99.90;;;;;;5092387;28;20176;-63
2023/05/10 00:47:57;;;;;;;0.00;0.00;;;13.30;99.90;;;;;;5091798;28;20229;-63
2023/05/10 00:50:23;;;;;;;0.10;0.10;;;13.30;99.90;;;;;;5092079;28;20171;-62
2023/05/10 00:52:49;;;;;;;0.00;0.00;;;13.30;99.90;;;;;;5092460;28;20259;-63
2023/05/10 00:55:15;;;;;;;0.00;0.00;;;13.20;99.90;;;;;;5091931;28;20164;-62
2023/05/10 00:57:41;;;;;;;0.00;0.00;;;13.20;99.90;;;;;;5092029;28;20207;-63
2023/05/10 01:00:08;;;;;;;0.00;0.00;;;13.20;99.90;;;;;;5092170;28;20176;-62
2023/05/10 01:02:34;;;;;;;0.00;0.00;;;13.20;99.90;;;;;;5094498;28;20187;-62
2023/05/10 01:05:03;;;;;;;0.00;0.00;;;13.20;99.90;;;;;;5091605;28;20530;-62
2023/05/10 01:07:29;;;;;;;0.00;0.00;;;13.10;99.90;;;;;;5091336;28;20211;-62
2023/05/10 01:09:55;;;;;;;0.00;0.00;;;13.10;99.90;;;;;;5098066;28;20638;-62
2023/05/10 01:12:20;;;;;;;0.00;0.00;;;13.10;99.90;;;;;;5091351;28;20564;-62
2023/05/10 01:14:47;;;;;;;0.00;0.00;;;13.10;99.90;;;;;;5092099;28;20224;-62
2023/05/10 01:17:13;;;;;;;0.00;0.00;;;13.10;99.90;;;;;;5082850;28;20217;-62
2023/05/10 01:19:38;;;;;;;0.00;0.00;;;13.10;99.90;;;;;;5085817;28;20179;-62
2023/05/10 01:22:16;;;;;;;0.00;0.00;;;13.00;99.90;;;;;;5094114;28;20184;-62
2023/05/10 01:25:09;;;;;;;0.00;0.00;;;13.00;99.90;;;;;;5091062;28;20589;-62
2023/05/10 01:27:46;;;;;;;0.00;0.00;;;13.00;99.90;;;;;;5091383;28;20655;-62
2023/05/10 01:30:48;;;;;;;0.00;0.00;;;13.00;99.90;;;;;;5091717;28;20187;-62
2023/05/10 01:33:37;;;;;;;0.00;0.00;;;13.00;99.90;;;;;;5080920;28;20573;-62
2023/05/10 01:36:16;;;;;;;0.00;0.00;;;13.00;99.90;;;;;;5091287;28;20542;-62
2023/05/10 01:38:52;;;;;;;0.00;0.00;;;13.00;99.90;;;;;;5091537;28;20690;-62
2023/05/10 01:41:27;;;;;;;0.00;0.00;;;12.90;99.90;;;;;;5091175;28;20180;-62
2023/05/10 01:44:00;;;;;;;0.00;0.00;;;12.90;99.90;;;;;;5091238;28;20254;-62
2023/05/10 01:46:39;;;;;;;0.00;0.00;;;12.90;99.90;;;;;;5091674;28;20176;-62
2023/05/10 01:49:25;;;;;;;0.00;0.00;;;12.90;99.90;;;;;;5080897;28;20647;-62
2023/05/10 01:51:54;;;;;;;0.10;0.10;;;12.90;99.90;;;;;;5090591;28;20578;-62
2023/05/10 01:54:22;;;;;;;0.10;0.10;;;12.90;99.90;;;;;;5090914;28;20183;-62
2023/05/10 01:56:57;;;;;;;0.00;0.00;;;12.90;99.90;;;;;;5091202;28;20555;-62
2023/05/10 01:59:26;;;;;;;0.00;0.00;;;12.90;99.90;;;;;;5071370;28;20203;-62
2023/05/10 02:01:52;;;;;;;0.00;0.00;;;12.90;99.90;;;;;;5082578;28;20165;-62
2023/05/10 02:04:19;;;;;;;0.00;0.00;;;12.90;99.90;;;;;;5090885;28;20212;-62
2023/05/10 02:06:47;;;;;;;0.00;0.00;;;13.00;99.90;;;;;;5090586;28;20574;-62
2023/05/10 02:09:14;;;;;;;0.00;0.00;;;13.00;99.90;;;;;;5091290;28;20172;-62
2023/05/10 02:11:42;;;;;;;0.00;0.00;;;13.00;99.90;;;;;;5090914;28;20230;-62
2023/05/10 02:14:11;;;;;;;0.00;0.00;;;13.00;99.90;;;;;;5091044;28;20222;-62
2023/05/10 02:16:39;;;;;;;0.00;0.00;;;13.00;99.90;;;;;;5090927;28;20184;-61
2023/05/10 02:19:06;;;;;;;0.00;0.00;;;13.00;99.90;;;;;;5089318;28;20241;-62
2023/05/10 02:21:32;;;;;;;0.00;0.00;;;13.00;99.90;;;;;;5090468;28;20176;-62
2023/05/10 02:24:00;;;;;;;0.00;0.00;;;13.00;99.90;;;;;;5090332;28;20224;-62
2023/05/10 02:26:27;;;;;;;0.00;0.00;;;13.00;99.90;;;;;;5091091;28;20515;-62
2023/05/10 02:28:54;;;;;;;0.00;0.00;;;13.00;99.90;;;;;;5090499;28;20180;-62
2023/05/10 02:31:21;;;;;;;0.00;0.00;;;13.00;99.90;;;;;;5090381;28;20191;-62
2023/05/10 02:33:47;;;;;;;0.00;0.00;;;13.00;99.90;;;;;;5089955;28;20333;-61
2023/05/10 02:36:14;;;;;;;0.00;0.00;;;13.00;99.90;;;;;;5094009;28;20172;-61
2023/05/10 02:38:41;;;;;;;0.00;0.00;;;13.00;99.90;;;;;;5094390;28;20572;-61
2023/05/10 02:41:09;;;;;;;0.00;0.00;;;13.00;99.90;;;;;;5094330;28;20182;-62
2023/05/10 02:43:35;;;;;;;0.00;0.00;;;13.00;99.90;;;;;;5094653;28;20218;-62
2023/05/10 02:46:01;;;;;;;0.00;0.00;;;13.00;99.90;;;;;;5094348;28;20229;-62
2023/05/10 02:48:27;;;;;;;0.00;0.00;;;13.00;99.90;;;;;;5094494;28;20180;-62
2023/05/10 02:50:55;;;;;;;0.00;0.00;;;13.10;99.90;;;;;;5094846;28;20195;-62
2023/05/10 02:53:27;;;;;;;0.00;0.00;;;13.00;99.90;;;;;;5094310;28;20184;-62
2023/05/10 02:55:57;;;;;;;0.00;0.00;;;13.10;99.90;;;;;;5094602;28;20180;-61
2023/05/10 02:58:22;;;;;;;0.00;0.00;;;13.10;99.90;;;;;;5094238;28;20208;-62
2023/05/10 03:00:48;;;;;;;0.30;0.22;;;13.10;99.90;;;;;;5094405;28;20180;-62
2023/05/10 03:03:13;;;;;;;0.00;0.00;;;13.00;99.90;;;;;;5093839;28;20180;-61
2023/05/10 03:05:39;;;;;;;0.00;0.00;;;13.10;99.90;;;;;;5094116;28;20187;-62
2023/05/10 03:08:05;;;;;;;0.00;0.00;;;13.10;99.90;;;;;;5094213;28;20180;-62
2023/05/10 03:10:33;;;;;;;0.00;0.00;;;13.10;99.90;;;;;;5094249;28;20183;-62
2023/05/10 03:13:11;;;;;;;0.00;0.00;;;13.10;99.90;;;;;;5093870;28;20192;-62
2023/05/10 03:16:04;;;;;;;0.00;0.00;;;13.10;99.90;;;;;;5091843;28;20635;-62
2023/05/10 03:18:36;;;;;;;0.00;0.00;;;13.10;99.90;;;;;;5093314;28;20212;-61
2023/05/10 03:21:05;;;;;;;0.00;0.00;;;13.10;99.90;;;;;;5094086;28;20172;-62
2023/05/10 03:23:42;;;;;;;0.00;0.00;;;13.10;99.90;;;;;;5093924;28;20219;-62
2023/05/10 03:26:09;;;;;;;0.00;0.00;;;13.10;99.90;;;;;;5094009;28;20176;-62
2023/05/10 03:28:36;;;;;;;0.00;0.00;;;13.10;99.90;;;;;;5093449;28;20228;-59
2023/05/10 03:31:04;;;;;;;0.00;0.00;;;13.10;99.90;;;;;;5092977;28;20194;-61
2023/05/10 03:33:29;;;;;;;0.20;0.20;;;13.10;99.90;;;;;;5093911;28;20694;-60
2023/05/10 03:35:55;;;;;;;0.00;0.00;;;13.10;99.90;;;;;;5093842;28;20267;-59
2023/05/10 03:38:20;;;;;;;0.00;0.00;;;13.10;99.90;;;;;;5093443;28;20207;-61
2023/05/10 03:40:46;;;;;;;0.00;0.00;;;13.10;99.90;;;;;;5093287;28;20221;-60
2023/05/10 03:43:11;;;;;;;0.00;0.00;;;13.10;99.90;;;;;;5092767;28;20184;-60
2023/05/10 03:45:37;;;;;;;0.00;0.00;;;13.10;99.90;;;;;;5092471;28;20172;-60
2023/05/10 03:48:03;;;;;;;0.00;0.00;;;13.10;99.90;;;;;;5093326;28;20172;-62
2023/05/10 03:50:28;;;;;;;0.00;0.00;;;13.10;99.90;;;;;;5093057;28;20172;-62
2023/05/10 03:52:54;;;;;;;0.00;0.00;;;13.10;99.90;;;;;;5093343;28;20204;-64
2023/05/10 03:55:20;;;;;;;0.05;0.05;;;13.10;99.90;;;;;;5092037;28;20171;-62
2023/05/10 03:57:45;;;;;;;0.00;0.00;;;13.10;99.90;;;;;;5093285;28;20281;-61
2023/05/10 04:00:11;;;;;;;0.00;0.00;;;13.10;99.90;;;;;;5092217;28;20176;-58
2023/05/10 04:02:37;;;;;;;0.00;0.00;;;13.10;99.90;;;;;;5093056;28;20742;-58
2023/05/10 04:05:03;;;;;;;0.00;0.00;;;13.10;99.90;;;;;;5092476;28;20259;-58
2023/05/10 04:07:29;;;;;;;0.00;0.00;;;13.00;99.90;;;;;;5092712;28;20720;-57
2023/05/10 04:09:54;;;;;;;0.00;0.00;;;13.00;99.90;;;;;;5093224;28;20516;-57
2023/05/10 04:12:20;;;;;;;0.00;0.00;;;13.00;99.90;;;;;;5092685;28;20188;-58
2023/05/10 04:14:45;;;;;;;0.00;0.00;;;13.00;99.90;;;;;;5093074;28;20176;-57
2023/05/10 04:17:11;;;;;;;0.00;0.00;;;13.00;99.90;;;;;;5092563;28;20212;-58
2023/05/10 04:19:36;;;;;;;0.00;0.00;;;13.00;99.90;;;;;;5092613;28;20205;-57
2023/05/10 04:22:02;;;;;;;0.00;0.00;;;13.00;99.90;;;;;;5092759;28;20259;-58
2023/05/10 04:24:28;;;;;;;0.00;0.00;;;13.00;99.90;;;;;;5092551;28;20227;-57
2023/05/10 04:26:54;;;;;;;0.00;0.00;;;13.00;99.90;;;;;;5092451;28;20605;-57
2023/05/10 04:29:20;;;;;;;0.10;0.10;;;12.90;99.90;;;;;;5092507;28;20313;-58
2023/05/10 04:31:45;;;;;;;0.00;0.00;;;12.90;99.90;;;;;;5092360;28;20176;-57
2023/05/10 04:34:11;;;;;;;0.00;0.00;;;13.00;99.90;;;;;;5092301;28;20176;-57
2023/05/10 04:36:36;;;;;;;0.00;0.00;;;13.00;99.90;;;;;;5092234;28;20173;-58
2023/05/10 04:39:03;;;;;;;0.00;0.00;;;12.90;99.90;;;;;;5092048;28;20184;-58
2023/05/10 04:41:29;;;;;;;0.00;0.00;;;13.00;99.90;;;;;;5092137;28;20183;-58
2023/05/10 04:43:55;;;;;;;0.00;0.00;;;13.00;99.90;;;;;;5092140;28;20188;-58
2023/05/10 04:46:20;;;;;;;0.00;0.00;;;13.00;99.90;;;;;;5091904;28;20179;-58
2023/05/10 04:48:46;;;;;;;0.00;0.00;;;13.00;99.90;;;;;;5091882;28;20176;-58
2023/05/10 04:51:12;;;;;;;0.00;0.00;;;13.00;99.90;;;;;;5091731;28;20175;-58
2023/05/10 04:53:37;;;;;;;0.20;0.20;;;13.00;99.90;;;;;;5091874;28;20263;-59
2023/05/10 04:56:03;;;;;;;0.00;0.00;;;13.00;99.90;;;;;;5091646;28;20207;-58
2023/05/10 04:58:29;;;;;;;0.00;0.00;;;13.10;99.90;;;;;;5091275;28;20215;-58
2023/05/10 05:00:54;;;;;;;0.00;0.00;;;13.10;99.90;;;;;;5091656;28;20176;-59
2023/05/10 05:03:20;;;;;;;0.00;0.00;;;13.10;99.90;;;;;;5091540;28;20184;-58
2023/05/10 05:05:45;;;;;;;0.00;0.00;;;13.10;99.90;;;;;;5090208;28;20263;-58
2023/05/10 05:08:11;;;;;;;0.00;0.00;;;13.10;99.90;;;;;;5091539;28;20172;-58
2023/05/10 05:10:36;;;;;;;0.00;0.00;;;13.10;99.90;;;;;;5091529;28;20208;-58
2023/05/10 05:13:02;;;;;;;0.00;0.00;;;13.10;99.90;;;;;;5091366;28;20638;-59
2023/05/10 05:15:27;;;;;;;0.00;0.00;;;13.20;99.90;;;;;;5091406;28;20563;-58
2023/05/10 05:17:53;;;;;;;0.00;0.00;;;13.20;99.90;;;;;;5091179;28;20227;-59
2023/05/10 05:20:19;;;;;;;0.00;0.00;;;13.20;99.90;;;;;;5091258;28;20187;-59
2023/05/10 05:22:45;;;;;;;0.00;0.00;;;13.20;99.90;;;;;;5091434;28;20180;-59
2023/05/10 05:25:11;;;;;;;0.10;0.10;;;13.30;99.90;;;;;;5091143;28;20705;-59
2023/05/10 05:27:37;;;;;;;0.00;0.00;;;13.30;99.90;;;;;;5091319;28;20183;-58
2023/05/10 05:30:03;;;;;;;0.00;0.00;;;13.30;99.90;;;;;;5091383;28;20168;-58
2023/05/10 05:32:28;;;;;;;0.00;0.00;;;13.30;99.90;;;;;;5091238;28;20265;-59
2023/05/10 05:34:54;;;;;;;0.00;0.00;;;13.40;99.90;;;;;;5091352;28;20206;-59
2023/05/10 05:37:24;;;;;;;0.00;0.00;;;13.40;99.90;;;;;;5091250;28;20212;-59
2023/05/10 05:39:49;;;;;;;0.00;0.00;;;13.50;99.90;;;;;;5091302;28;20180;-59
2023/05/10 05:42:17;;;;;;;0.47;0.47;;;13.50;99.90;;;;;;5091133;28;20229;-58
2023/05/10 05:44:43;;;;;;;0.00;0.00;;;13.50;99.90;;;;;;5091246;28;20188;-58
2023/05/10 05:47:09;;;;;;;0.00;0.00;;;13.60;99.90;;;;;;5090969;28;20350;-58
2023/05/10 05:49:34;;;;;;;0.00;0.00;;;13.70;99.90;;;;;;5091175;28;20718;-58
2023/05/10 05:52:01;;;;;;;0.00;0.00;;;13.70;99.90;;;;;;5089642;28;20271;-58
2023/05/10 05:54:27;;;;;;;0.00;0.00;;;13.70;99.90;;;;;;5091103;28;20168;-58
2023/05/10 05:57:00;;;;;;;0.00;0.00;;;13.80;99.90;;;;;;5090884;28;20659;-58
2023/05/10 05:59:26;;;;;;;0.00;0.00;;;13.80;99.90;;;;;;5091090;28;20180;-59
2023/05/10 06:01:52;;;;;;;0.00;0.00;;;13.80;99.90;;;;;;5090677;28;20609;-59
2023/05/10 06:04:18;;;;;;;0.00;0.00;;;13.90;99.90;;;;;;5090984;28;20180;-59
2023/05/10 06:06:43;;;;;;;0.00;0.00;;;13.90;99.90;;;;;;5090721;28;20190;-59
2023/05/10 06:09:09;;;;;;;0.00;0.00;;;14.00;99.90;;;;;;5091540;28;20206;-59
2023/05/10 06:11:36;;;;;;;0.00;0.00;;;14.00;99.90;;;;;;5095240;28;20183;-59
2023/05/10 06:14:04;;;;;;;0.00;0.00;;;14.00;99.90;;;;;;5095040;28;20225;-59
2023/05/10 06:16:30;;;;;;;0.00;0.00;;;14.00;99.90;;;;;;5094998;28;20572;-59
2023/05/10 06:18:55;;;;;;;0.20;0.20;;;14.00;99.90;;;;;;5094837;28;20254;-59
2023/05/10 06:21:21;;;;;;;0.00;0.00;;;13.90;99.90;;;;;;5094734;28;20634;-58
2023/05/10 06:23:46;;;;;;;0.00;0.00;;;13.90;99.90;;;;;;5094823;28;20219;-58
2023/05/10 06:26:13;;;;;;;0.08;0.08;;;13.90;99.90;;;;;;5094748;28;20183;-58
2023/05/10 06:28:39;;;;;;;0.00;0.00;;;13.90;99.90;;;;;;5094848;28;20262;-59
2023/05/10 06:31:05;;;;;;;0.00;0.00;;;13.90;99.90;;;;;;5094818;28;20361;-58
2023/05/10 06:33:31;;;;;;;0.00;0.00;;;13.90;99.90;;;;;;5094726;28;20537;-59
2023/05/10 06:35:57;;;;;;;0.00;0.00;;;13.90;99.90;;;;;;5094781;28;20176;-59
2023/05/10 06:38:22;;;;;;;0.00;0.00;;;13.90;99.90;;;;;;5094603;28;20223;-58
2023/05/10 06:40:48;;;;;;;0.00;0.00;;;13.90;99.90;;;;;;5094570;28;20529;-59
2023/05/10 06:43:13;;;;;;;0.00;0.00;;;13.90;99.90;;;;;;5094666;28;20174;-58
2023/05/10 06:45:39;;;;;;;0.00;0.00;;;14.00;99.90;;;;;;5094456;28;20271;-59
2023/05/10 06:48:04;;;;;;;0.00;0.00;;;14.00;99.90;;;;;;5094352;28;20205;-59
2023/05/10 06:50:30;;;;;;;0.00;0.00;;;14.10;99.90;;;;;;5094381;28;20200;-58
2023/05/10 06:52:56;;;;;;;0.00;0.00;;;14.10;99.90;;;;;;5094314;28;20245;-59
2023/05/10 06:55:21;;;;;;;0.00;0.00;;;14.00;99.90;;;;;;5094590;28;20166;-58
2023/05/10 06:57:47;;;;;;;0.10;0.10;;;14.10;99.90;;;;;;5094500;28;20222;-59
2023/05/10 07:00:14;;;;;;;0.00;0.00;;;14.10;99.90;;;;;;5094531;28;20207;-59
2023/05/10 07:02:39;;;;;;;0.00;0.00;;;14.20;99.90;;;;;;5094424;28;20621;-59
2023/05/10 07:05:05;;;;;;;0.00;0.00;;;14.30;99.90;;;;;;5094398;28;20258;-59
2023/05/10 07:07:31;;;;;;;0.00;0.00;;;14.30;99.90;;;;;;5094481;28;20521;-59
2023/05/10 07:09:57;;;;;;;0.00;0.00;;;14.30;99.90;;;;;;5094436;28;20175;-60
2023/05/10 07:12:23;;;;;;;0.00;0.00;;;14.30;99.90;;;;;;5094444;28;20255;-59
2023/05/10 07:14:49;;;;;;;0.08;0.08;;;14.30;99.90;;;;;;5094262;28;20168;-59
2023/05/10 07:17:14;;;;;;;0.00;0.00;;;14.30;99.90;;;;;;5088552;28;20204;-59
2023/05/10 07:19:40;;;;;;;0.00;0.00;;;14.40;99.90;;;;;;5094109;28;20218;-59
2023/05/10 07:22:05;;;;;;;0.10;0.10;;;14.40;99.90;;;;;;5082816;28;20221;-59
2023/05/10 07:24:32;;;;;;;0.00;0.00;;;14.50;99.90;;;;;;5093684;28;20620;-59
2023/05/10 07:26:58;;;;;;;0.00;0.00;;;14.60;99.90;;;;;;5094045;28;20175;-59
2023/05/10 07:29:25;;;;;;;0.00;0.00;;;14.70;99.90;;;;;;5094063;28;20200;-59
2023/05/10 07:31:50;;;;;;;0.00;0.00;;;14.80;99.90;;;;;;5093931;28;20202;-59
2023/05/10 07:34:16;;;;;;;0.00;0.00;;;14.90;99.90;;;;;;5094011;28;20176;-58
2023/05/10 07:36:41;;;;;;;0.00;0.00;;;15.00;99.90;;;;;;5093901;28;20206;-59
2023/05/10 07:39:07;;;;;;;0.00;0.00;;;15.10;99.90;;;;;;5093813;28;20241;-59
2023/05/10 07:41:33;;;;;;;0.00;0.00;;;15.00;99.90;;;;;;5093977;28;20756;-59
2023/05/10 07:43:58;;;;;;;0.00;0.00;;;15.10;99.90;;;;;;5093736;28;20241;-59
2023/05/10 07:46:24;;;;;;;0.00;0.00;;;15.20;99.90;;;;;;5093863;28;20200;-58
2023/05/10 07:48:49;;;;;;;0.00;0.00;;;15.40;99.90;;;;;;5093637;28;20180;-59
2023/05/10 07:51:15;;;;;;;0.00;0.00;;;15.50;99.90;;;;;;5093698;28;20184;-58
2023/05/10 07:53:40;;;;;;;0.00;0.00;;;15.60;99.90;;;;;;5093642;28;20225;-59
2023/05/10 07:56:26;;;;;;;0.00;0.00;;;15.60;99.90;;;;;;5093521;28;20217;-59
2023/05/10 07:58:52;;;;;;;0.00;0.00;;;15.60;99.90;;;;;;5093497;28;20241;-59
2023/05/10 08:01:18;;;;;;;0.00;0.00;;;15.70;99.90;;;;;;5093408;28;20219;-59
2023/05/10 08:03:44;;;;;;;0.00;0.00;;;15.80;99.90;;;;;;5093416;28;20196;-59
2023/05/10 08:06:09;;;;;;;0.00;0.00;;;15.90;99.90;;;;;;5093157;28;20180;-59
2023/05/10 08:08:35;;;;;;;0.00;0.00;;;16.00;99.90;;;;;;5093402;28;20164;-59
2023/05/10 08:11:00;;;;;;;0.00;0.00;;;16.00;99.90;;;;;;5093209;28;20199;-59
2023/05/10 08:13:26;;;;;;;0.00;0.00;;;16.00;99.90;;;;;;5093349;28;20309;-59
2023/05/10 08:15:52;;;;;;;0.00;0.00;;;15.90;99.90;;;;;;5093024;28;20172;-59
2023/05/10 08:18:19;;;;;;;0.00;0.00;;;15.90;99.90;;;;;;5093071;28;20273;-59
2023/05/10 08:20:44;;;;;;;0.00;0.00;;;15.90;99.90;;;;;;5093094;28;20230;-59
2023/05/10 08:23:12;;;;;;;0.30;0.28;;;15.80;99.90;;;;;;5092861;28;20646;-58
2023/05/10 08:25:37;;;;;;;0.00;0.00;;;15.70;99.90;;;;;;5092907;28;20294;-59
2023/05/10 08:28:03;;;;;;;0.00;0.00;;;15.60;99.90;;;;;;5092891;28;20333;-59
2023/05/10 08:30:28;;;;;;;0.00;0.00;;;15.40;99.90;;;;;;5093058;28;20172;-59
2023/05/10 08:32:54;;;;;;;0.00;0.00;;;15.30;99.90;;;;;;5092461;28;20191;-59
2023/05/10 08:35:19;;;;;;;0.00;0.00;;;15.20;99.90;;;;;;5092743;28;20176;-59
2023/05/10 08:37:45;;;;;;;0.00;0.00;;;15.30;99.90;;;;;;5092733;28;20231;-59
2023/05/10 08:40:12;;;;;;;0.00;0.00;;;15.40;99.90;;;;;;5092552;28;20263;-58
2023/05/10 08:42:40;;;;;;;0.00;0.00;;;15.80;99.90;;;;;;5092677;28;20233;-59
2023/05/10 08:45:07;;;;;;;0.00;0.00;;;16.00;99.90;;;;;;5092584;28;20642;-59
2023/05/10 08:47:34;;;;;;;0.00;0.00;;;16.20;99.90;;;;;;5092479;28;20175;-59
2023/05/10 08:50:02;;;;;;;0.00;0.00;;;16.50;99.90;;;;;;5092432;28;20180;-59
2023/05/10 08:52:29;;;;;;;0.00;0.00;;;16.80;99.90;;;;;;5092447;28;20204;-59
2023/05/10 08:54:55;;;;;;;0.00;0.00;;;16.90;99.90;;;;;;5092458;28;20184;-59
2023/05/10 08:57:21;;;;;;;0.00;0.00;;;17.00;99.90;;;;;;5092324;28;20219;-59
2023/05/10 08:59:47;;;;;;;0.00;0.00;;;17.10;99.90;;;;;;5092433;28;20515;-59
2023/05/10 09:02:13;;;;;;;0.00;0.00;;;16.80;99.90;;;;;;5092211;28;20180;-59
2023/05/10 09:04:39;;;;;;;0.00;0.00;;;16.80;99.90;;;;;;5092382;28;20525;-59
2023/05/10 09:07:05;;;;;;;0.00;0.00;;;16.70;99.90;;;;;;5092116;28;20179;-59
2023/05/10 09:09:31;;;;;;;0.00;0.00;;;16.50;99.90;;;;;;5092141;28;20200;-59
2023/05/10 09:11:56;;;;;;;0.00;0.00;;;16.50;99.90;;;;;;5092183;28;20179;-59
2023/05/10 09:14:24;;;;;;;0.00;0.00;;;16.60;99.90;;;;;;5090796;28;20172;-59
2023/05/10 09:16:50;;;;;;;0.15;0.15;;;16.70;99.90;;;;;;5091934;28;20655;-59
2023/05/10 09:19:15;;;;;;;0.00;0.00;;;16.90;99.90;;;;;;5091924;28;20345;-58
2023/05/10 09:21:41;;;;;;;0.00;0.00;;;16.90;99.90;;;;;;5091904;28;20207;-58
2023/05/10 09:24:08;;;;;;;0.00;0.00;;;16.80;99.90;;;;;;5091667;28;20224;-58
2023/05/10 09:26:35;;;;;;;0.00;0.00;;;16.70;99.90;;;;;;5091851;28;20639;-58
2023/05/10 09:29:02;;;;;;;0.80;0.35;;;16.50;99.90;;;;;;5091748;28;20208;-59
2023/05/10 09:31:46;;;;;;;0.00;0.00;;;16.30;99.90;;;;;;5091885;28;20236;-59
2023/05/10 09:34:16;;;;;;;0.00;0.00;;;16.10;99.90;;;;;;5091607;28;20176;-58
2023/05/10 09:36:56;;;;;;;0.00;0.00;;;16.00;99.90;;;;;;5091857;28;20186;-59
2023/05/10 09:39:32;;;;;;;0.00;0.00;;;15.70;99.90;;;;;;5090506;28;20187;-58
2023/05/10 09:42:03;;;;;;;0.00;0.00;;;15.40;99.90;;;;;;5091590;28;20183;-59
2023/05/10 09:44:29;;;;;;;0.00;0.00;;;15.00;99.90;;;;;;5090834;28;20184;-59
2023/05/10 09:46:55;;;;;;;0.05;0.05;;;14.70;99.90;;;;;;5091557;28;20176;-59
2023/05/10 09:49:21;;;;;;;0.00;0.00;;;14.70;99.90;;;;;;5091430;28;20187;-59
2023/05/10 09:51:50;;;;;;;0.00;0.00;;;14.70;99.90;;;;;;5091310;28;20168;-59
2023/05/10 09:54:16;;;;;;;0.00;0.00;;;14.80;99.90;;;;;;5091498;28;20190;-59
2023/05/10 09:56:42;;;;;;;0.00;0.00;;;14.90;99.90;;;;;;5091519;28;20207;-59
2023/05/10 09:59:10;;;;;;;0.00;0.00;;;15.10;99.90;;;;;;5091144;28;20251;-59
2023/05/10 10:01:36;;;;;;;0.05;0.05;;;15.30;99.90;;;;;;5091481;28;20203;-59
2023/05/10 10:04:06;;;;;;;0.00;0.00;;;15.40;99.90;;;;;;5091313;28;20179;-59
2023/05/10 10:06:38;;;;;;;0.00;0.00;;;15.40;99.90;;;;;;5091258;28;20172;-59
2023/05/10 10:09:06;;;;;;;0.00;0.00;;;15.40;99.90;;;;;;5091331;28;20180;-59
2023/05/10 10:11:32;;;;;;;0.00;0.00;;;15.50;99.90;;;;;;5090045;28;20168;-59
2023/05/10 10:13:58;;;;;;;0.00;0.00;;;15.60;99.90;;;;;;5091278;28;20264;-59
2023/05/10 10:16:25;;;;;;;0.00;0.00;;;15.50;99.90;;;;;;5091376;28;20262;-59
2023/05/10 10:18:50;;;;;;;0.10;0.10;;;15.40;99.90;;;;;;5090937;28;20243;-59
2023/05/10 10:21:17;;;;;;;0.00;0.00;;;15.50;99.90;;;;;;5091162;28;20219;-59
2023/05/10 10:23:43;;;;;;;0.00;0.00;;;15.60;99.90;;;;;;5091082;28;20212;-59
2023/05/10 10:26:10;;;;;;;0.00;0.00;;;15.70;99.90;;;;;;5091059;28;20184;-58
2023/05/10 10:29:14;;;;;;;0.00;0.00;;;15.70;99.90;;;;;;5091238;28;20179;-59
2023/05/10 10:31:55;;;;;;;0.00;0.00;;;15.80;99.90;;;;;;5091210;28;20175;-58
2023/05/10 10:34:29;;;;;;;0.00;0.00;;;15.80;99.90;;;;;;5091385;28;20184;-58
2023/05/10 10:36:56;;;;;;;0.35;0.35;;;15.80;99.90;;;;;;5090975;28;20179;-59
2023/05/10 10:39:22;;;;;;;0.00;0.00;;;15.80;99.90;;;;;;5091128;28;20188;-59
2023/05/10 10:41:53;;;;;;;0.00;0.00;;;15.90;99.90;;;;;;5091144;28;20176;-59
2023/05/10 10:44:22;;;;;;;0.00;0.00;;;16.00;99.90;;;;;;5091123;28;20225;-59
2023/05/10 10:47:05;;;;;;;0.00;0.00;;;16.00;99.90;;;;;;5090896;28;20168;-58
2023/05/10 10:49:33;;;;;;;0.00;0.00;;;16.00;99.90;;;;;;5091001;28;20180;-59
2023/05/10 10:52:32;;;;;;;0.00;0.00;;;16.10;99.90;;;;;;5090966;28;20168;-59
2023/05/10 10:55:12;;;;;;;0.00;0.00;;;16.40;99.90;;;;;;5076650;28;20263;-59
2023/05/10 10:57:41;;;;;;;0.00;0.00;;;16.60;99.90;;;;;;5094768;28;20215;-59
2023/05/10 11:00:32;;;;;;;0.00;0.00;;;16.90;99.90;;;;;;5094651;28;20184;-59
2023/05/10 11:03:16;;;;;;;0.00;0.00;;;17.10;99.90;;;;;;5094551;28;20187;-59
2023/05/10 11:05:43;;;;;;;0.00;0.00;;;17.30;99.90;;;;;;5094591;28;20157;-59
2023/05/10 11:08:27;;;;;;;0.00;0.00;;;17.40;99.90;;;;;;5094293;28;20250;-59
2023/05/10 11:10:59;;;;;;;0.00;0.00;;;17.40;99.90;;;;;;5094472;28;20164;-59
2023/05/10 11:13:37;;;;;;;0.00;0.00;;;17.20;99.90;;;;;;5094332;28;20662;-59
2023/05/10 11:16:44;;;;;;;0.00;0.00;;;17.20;99.90;;;;;;5094410;28;20168;-59
2023/05/10 11:19:15;;;;;;;0.00;0.00;;;17.30;99.90;;;;;;5075521;28;20258;-59
2023/05/10 11:21:51;;;;;;;0.00;0.00;;;17.50;99.90;;;;;;5090688;28;20176;-59
2023/05/10 11:24:19;;;;;;;0.00;0.00;;;17.80;99.90;;;;;;5094004;28;20251;-58
2023/05/10 11:26:45;;;;;;;0.00;0.00;;;18.00;99.90;;;;;;5094201;28;20606;-59
2023/05/10 11:29:13;;;;;;;0.00;0.00;;;17.90;99.90;;;;;;5093891;28;20654;-59
2023/05/10 11:31:46;;;;;;;0.00;0.00;;;18.00;99.90;;;;;;5094249;28;20187;-59
2023/05/10 11:34:25;;;;;;;0.00;0.00;;;18.00;99.90;;;;;;5093914;28;20172;-59
2023/05/10 11:36:53;;;;;;;0.00;0.00;;;18.10;99.90;;;;;;5093772;28;20204;-59
2023/05/10 11:39:19;;;;;;;0.20;0.20;;;18.20;99.90;;;;;;5094026;28;20192;-59
2023/05/10 11:41:48;;;;;;;0.00;0.00;;;18.40;99.90;;;;;;5094076;28;20172;-59
2023/05/10 11:44:14;;;;;;;0.00;0.00;;;18.50;99.90;;;;;;5093753;28;20207;-59
2023/05/10 11:46:40;;;;;;;0.00;0.00;;;18.40;99.90;;;;;;5093832;28;20613;-59
2023/05/10 11:49:07;;;;;;;0.00;0.00;;;18.60;99.90;;;;;;5093579;28;20271;-59
2023/05/10 11:51:36;;;;;;;0.00;0.00;;;18.60;99.90;;;;;;5093842;28;20173;-59
2023/05/10 11:54:07;;;;;;;0.00;0.00;;;18.40;99.90;;;;;;5093585;28;20176;-59
2023/05/10 11:56:32;;;;;;;0.00;0.00;;;18.20;99.90;;;;;;5093678;28;20180;-59
2023/05/10 11:58:59;;;;;;;0.00;0.00;;;18.20;99.90;;;;;;5093486;28;20261;-59
2023/05/10 12:01:26;;;;;;;0.00;0.00;;;18.10;99.90;;;;;;5093585;28;20186;-59
2023/05/10 12:03:54;;;;;;;0.00;0.00;;;18.10;99.90;;;;;;5093503;28;20184;-59
2023/05/10 12:06:20;;;;;;;0.00;0.00;;;18.10;99.90;;;;;;5092808;28;20505;-59
2023/05/10 12:08:48;;;;;;;0.00;0.00;;;18.00;99.90;;;;;;5092913;28;20180;-59
2023/05/10 12:11:15;;;;;;;0.00;0.00;;;17.90;99.90;;;;;;5093314;28;20643;-59
2023/05/10 12:13:42;;;;;;;0.13;0.13;;;18.00;99.90;;;;;;5093290;28;20229;-59
2023/05/10 12:16:15;;;;;;;0.00;0.00;;;18.10;99.90;;;;;;5093045;28;20658;-59
2023/05/10 12:18:42;;;;;;;0.00;0.00;;;18.10;99.90;;;;;;5089617;28;20277;-59
2023/05/10 12:21:10;;;;;;;0.00;0.00;;;18.10;99.90;;;;;;5084777;28;20179;-59
2023/05/10 12:23:36;;;;;;;0.00;0.00;;;18.10;99.90;;;;;;5092891;28;20212;-59
2023/05/10 12:26:04;;;;;;;0.00;0.00;;;18.00;99.90;;;;;;5092997;28;20191;-59
2023/05/10 12:28:31;;;;;;;0.00;0.00;;;18.10;99.90;;;;;;5092955;28;20194;-58
2023/05/10 12:30:57;;;;;;;0.00;0.00;;;18.10;99.90;;;;;;5092901;28;20172;-58
2023/05/10 12:33:23;;;;;;;0.00;0.00;;;18.30;99.90;;;;;;5092804;28;20263;-58
2023/05/10 12:35:53;;;;;;;0.00;0.00;;;18.50;99.90;;;;;;5092698;28;20259;-58
2023/05/10 12:38:43;;;;;;;0.00;0.00;;;18.60;99.90;;;;;;5092678;28;20560;-59
2023/05/10 12:41:12;;;;;;;0.00;0.00;;;18.90;99.90;;;;;;5092696;28;20182;-59
2023/05/10 12:43:38;;;;;;;0.00;0.00;;;18.90;99.90;;;;;;5092815;28;20218;-58
2023/05/10 12:46:12;;;;;;;0.00;0.00;;;18.80;99.90;;;;;;5092569;28;20168;-59
2023/05/10 12:48:39;;;;;;;0.00;0.00;;;18.60;99.90;;;;;;5092657;28;20325;-59
2023/05/10 12:51:09;;;;;;;0.00;0.00;;;18.70;99.90;;;;;;5092420;28;20184;-59
2023/05/10 12:53:34;;;;;;;0.00;0.00;;;18.60;99.60;;;;;;5092582;28;20264;-59